createdAt,value
2023-02-21T00:02:42.421Z,6.07
2023-02-21T00:05:27.157Z,11.97
2023-02-21T00:08:12.155Z,4.33
2023-02-21T00:10:56.897Z,8.60
2023-02-21T00:13:41.710Z,5.30
2023-02-21T00:16:26.890Z,14.90
2023-02-21T00:19:11.607Z,4.43
2023-02-21T00:21:56.710Z,10.27
2023-02-21T00:24:41.348Z,2.73
2023-02-21T00:27:26.121Z,2.50
2023-02-21T00:30:10.971Z,3.30
2023-02-21T00:32:56.061Z,7.73
2023-02-21T00:35:41.544Z,5.67
2023-02-21T00:38:26.841Z,6.10
2023-02-21T00:41:12.448Z,2.70
2023-02-21T00:43:57.864Z,2.77
2023-02-21T00:46:43.298Z,2.63
2023-02-21T00:49:28.085Z,5.50
2023-02-21T00:52:14.152Z,9.63
2023-02-21T00:54:58.911Z,5.73
2023-02-21T00:57:43.753Z,2.43
2023-02-21T01:00:36.103Z,5.17
2023-02-21T01:03:21.440Z,3.07
2023-02-21T01:06:06.162Z,4.00
2023-02-21T01:08:51.491Z,4.90
2023-02-21T01:11:38.833Z,5.13
2023-02-21T01:14:26.807Z,5.53
2023-02-21T01:17:13.817Z,4.43
2023-02-21T01:20:00.357Z,3.83
2023-02-21T01:22:45.611Z,4.10
2023-02-21T01:25:30.407Z,4.00
2023-02-21T01:28:15.224Z,2.83
2023-02-21T01:30:59.971Z,3.10
2023-02-21T01:33:44.803Z,2.83
2023-02-21T01:36:29.973Z,3.90
2023-02-21T01:39:14.797Z,6.13
2023-02-21T01:42:00.180Z,10.97
2023-02-21T01:45:00.431Z,8.20
2023-02-21T01:47:46.128Z,4.97
2023-02-21T01:50:40.935Z,12.03
2023-02-21T01:53:31.629Z,7.50
2023-02-21T01:56:19.096Z,8.93
2023-02-21T01:59:07.954Z,8.77
2023-02-21T02:02:36.674Z,8.03
2023-02-21T02:05:23.971Z,16.83
2023-02-21T02:08:11.266Z,6.23
2023-02-21T02:10:56.495Z,13.60
2023-02-21T02:13:31.098Z,9.07
2023-02-21T02:16:10.335Z,13.20
2023-02-21T02:18:58.617Z,9.63
2023-02-21T02:21:50.239Z,13.27
2023-02-21T02:24:25.585Z,11.03
2023-02-21T02:27:25.658Z,9.80
2023-02-21T02:30:17.350Z,7.03
2023-02-21T02:33:01.987Z,6.60
2023-02-21T02:35:33.880Z,7.90
2023-02-21T02:38:15.525Z,4.47
2023-02-21T02:40:59.621Z,6.03
2023-02-21T02:43:51.381Z,5.97
2023-02-21T02:46:21.448Z,7.87
2023-02-21T02:48:55.347Z,4.77
2023-02-21T02:51:22.482Z,4.97
2023-02-21T02:53:49.956Z,6.00
2023-02-21T02:56:17.665Z,6.20
2023-02-21T02:58:52.460Z,5.80
2023-02-21T03:01:30.715Z,6.23
2023-02-21T03:04:22.158Z,4.83
2023-02-21T03:07:06.600Z,7.07
2023-02-21T03:09:51.461Z,6.30
2023-02-21T03:12:35.513Z,3.00
2023-02-21T03:15:17.690Z,8.27
2023-02-21T03:17:50.709Z,5.13
2023-02-21T03:20:18.280Z,3.97
2023-02-21T03:22:46.409Z,3.10
2023-02-21T03:25:15.028Z,5.27
2023-02-21T03:27:43.166Z,3.80
2023-02-21T03:30:10.946Z,2.50
2023-02-21T03:32:43.752Z,9.63
2023-02-21T03:35:10.107Z,3.60
2023-02-21T03:37:42.212Z,3.83
2023-02-21T03:40:13.603Z,4.33
2023-02-21T03:42:40.010Z,3.30
2023-02-21T03:45:06.574Z,4.40
2023-02-21T03:47:32.985Z,3.67
2023-02-21T03:49:59.320Z,3.27
2023-02-21T03:52:25.692Z,2.20
2023-02-21T03:54:52.050Z,5.90
2023-02-21T03:57:18.501Z,6.60
2023-02-21T03:59:45.317Z,4.03
2023-02-21T04:02:11.704Z,2.50
2023-02-21T04:04:38.141Z,5.13
2023-02-21T04:07:04.512Z,4.73
2023-02-21T04:09:30.894Z,5.37
2023-02-21T04:11:57.380Z,2.60
2023-02-21T04:14:23.734Z,2.90
2023-02-21T04:16:50.189Z,3.33
2023-02-21T04:19:16.524Z,7.80
2023-02-21T04:21:42.948Z,4.83
2023-02-21T04:24:09.364Z,3.30
2023-02-21T04:26:35.802Z,2.80
2023-02-21T04:29:02.934Z,3.53
2023-02-21T04:31:29.351Z,4.70
2023-02-21T04:34:10.605Z,4.33
2023-02-21T04:36:38.479Z,2.40
2023-02-21T04:39:05.808Z,7.13
2023-02-21T04:41:33.195Z,8.80
2023-02-21T04:43:59.531Z,10.20
2023-02-21T04:46:26.141Z,11.87
2023-02-21T04:48:53.379Z,8.90
2023-02-21T04:51:22.613Z,9.27
2023-02-21T04:53:50.048Z,6.40
2023-02-21T04:56:19.458Z,11.43
2023-02-21T04:58:46.289Z,6.70
2023-02-21T05:01:14.424Z,15.90
2023-02-21T05:03:41.138Z,19.23
2023-02-21T05:06:07.929Z,14.13
2023-02-21T05:08:35.990Z,17.80
2023-02-21T05:11:02.827Z,14.97
2023-02-21T05:13:29.453Z,10.83
2023-02-21T05:15:55.782Z,14.73
2023-02-21T05:18:28.818Z,22.80
2023-02-21T05:20:55.658Z,9.70
2023-02-21T05:23:34.212Z,7.63
2023-02-21T05:26:12.574Z,9.40
2023-02-21T05:28:40.542Z,13.17
2023-02-21T05:31:07.702Z,9.83
2023-02-21T05:33:34.279Z,14.77
2023-02-21T05:36:00.627Z,19.30
2023-02-21T05:38:27.304Z,14.03
2023-02-21T05:40:53.997Z,16.60
2023-02-21T05:43:20.505Z,9.03
2023-02-21T05:45:46.933Z,11.97
2023-02-21T05:48:13.374Z,11.90
2023-02-21T05:50:39.809Z,11.13
2023-02-21T05:53:07.140Z,19.20
2023-02-21T05:55:33.553Z,12.20
2023-02-21T05:57:59.939Z,17.20
2023-02-21T06:00:29.668Z,13.60
2023-02-21T06:02:56.805Z,9.17
2023-02-21T06:05:23.800Z,12.70
2023-02-21T06:07:50.258Z,17.27
2023-02-21T06:10:17.898Z,17.70
2023-02-21T06:12:44.344Z,10.27
2023-02-21T06:15:12.712Z,13.07
2023-02-21T06:17:40.454Z,9.53
2023-02-21T06:20:07.799Z,23.23
2023-02-21T06:22:34.246Z,16.80
2023-02-21T06:25:00.623Z,15.97
2023-02-21T06:27:27.005Z,17.70
2023-02-21T06:29:53.341Z,11.40
2023-02-21T06:32:19.716Z,11.50
2023-02-21T06:34:46.278Z,19.70
2023-02-21T06:37:12.906Z,20.10
2023-02-21T06:39:39.940Z,15.20
2023-02-21T06:42:06.604Z,8.90
2023-02-21T06:44:32.955Z,17.20
2023-02-21T06:46:59.319Z,8.93
2023-02-21T06:49:25.650Z,15.63
2023-02-21T06:51:52.027Z,9.70
2023-02-21T06:54:18.431Z,19.90
2023-02-21T06:56:44.778Z,16.03
2023-02-21T06:59:11.381Z,25.67
2023-02-21T07:01:37.773Z,15.40
2023-02-21T07:04:04.454Z,28.70
2023-02-21T07:06:33.216Z,15.27
2023-02-21T07:08:59.576Z,7.57
2023-02-21T07:11:25.995Z,16.23
2023-02-21T07:13:54.354Z,13.63
2023-02-21T07:16:21.072Z,13.57
2023-02-21T07:18:47.587Z,22.17
2023-02-21T07:21:15.423Z,21.43
2023-02-21T07:23:45.267Z,13.07
2023-02-21T07:26:12.253Z,17.07
2023-02-21T07:28:38.708Z,10.70
2023-02-21T07:31:05.345Z,15.87
2023-02-21T07:33:32.069Z,14.77
2023-02-21T07:35:58.490Z,14.77
2023-02-21T07:38:28.198Z,15.47
2023-02-21T07:40:55.946Z,10.70
2023-02-21T07:43:22.358Z,15.07
2023-02-21T07:45:48.709Z,18.27
2023-02-21T07:48:15.207Z,22.00
2023-02-21T07:50:45.482Z,17.77
2023-02-21T07:53:13.333Z,14.20
2023-02-21T07:55:39.748Z,12.10
2023-02-21T07:58:06.449Z,20.90
2023-02-21T08:00:32.820Z,18.60
2023-02-21T08:02:59.832Z,11.80
2023-02-21T08:05:26.431Z,20.37
2023-02-21T08:07:53.154Z,9.23
2023-02-21T08:10:26.997Z,14.57
2023-02-21T08:12:53.666Z,13.13
2023-02-21T08:15:20.061Z,20.47
2023-02-21T08:17:50.132Z,16.87
2023-02-21T08:20:17.171Z,19.67
2023-02-21T08:22:43.616Z,16.40
2023-02-21T08:25:11.483Z,13.17
2023-02-21T08:27:41.669Z,16.50
2023-02-21T08:30:11.127Z,12.10
2023-02-21T08:32:37.589Z,26.43
2023-02-21T08:35:06.226Z,12.50
2023-02-21T08:37:36.226Z,23.00
2023-02-21T08:40:04.309Z,13.93
2023-02-21T08:42:30.763Z,15.00
2023-02-21T08:44:57.606Z,14.67
2023-02-21T08:47:24.061Z,8.70
2023-02-21T08:49:50.472Z,19.40
2023-02-21T08:52:18.839Z,13.33
2023-02-21T08:54:46.026Z,16.40
2023-02-21T08:57:13.053Z,13.90
2023-02-21T08:59:44.961Z,20.47
2023-02-21T09:02:16.904Z,14.67
2023-02-21T09:04:44.108Z,20.83
2023-02-21T09:07:16.725Z,20.70
2023-02-21T09:09:43.145Z,16.87
2023-02-21T09:12:09.839Z,16.57
2023-02-21T09:14:37.811Z,16.63
2023-02-21T09:17:05.905Z,13.40
2023-02-21T09:19:32.814Z,17.33
2023-02-21T09:22:01.618Z,12.00
2023-02-21T09:24:28.366Z,15.93
2023-02-21T09:26:58.898Z,12.70
2023-02-21T09:29:43.747Z,12.90
2023-02-21T09:32:12.160Z,15.43
2023-02-21T09:34:38.777Z,12.20
2023-02-21T09:37:06.028Z,11.00
2023-02-21T09:39:32.434Z,14.40
2023-02-21T09:41:59.036Z,14.90
2023-02-21T09:44:28.890Z,14.23
2023-02-21T09:47:01.616Z,17.30
2023-02-21T09:49:35.431Z,24.23
2023-02-21T09:52:02.996Z,16.83
2023-02-21T09:54:39.031Z,17.37
2023-02-21T09:57:11.316Z,11.90
2023-02-21T09:59:37.987Z,14.07
2023-02-21T10:02:10.135Z,12.07
2023-02-21T10:05:03.227Z,16.17
2023-02-21T10:07:55.970Z,12.77
2023-02-21T10:10:33.997Z,6.57
2023-02-21T10:13:30.558Z,19.47
2023-02-21T10:16:05.106Z,12.43
2023-02-21T10:18:38.846Z,12.70
2023-02-21T10:21:16.080Z,11.63
2023-02-21T10:23:48.602Z,22.80
2023-02-21T10:26:38.034Z,10.43
2023-02-21T10:29:15.333Z,11.37
2023-02-21T10:31:43.355Z,13.17
2023-02-21T10:34:23.431Z,17.10
2023-02-21T10:36:50.852Z,13.10
2023-02-21T10:39:21.346Z,10.60
2023-02-21T10:41:49.680Z,4.53
2023-02-21T10:44:22.225Z,11.70
2023-02-21T10:47:19.307Z,12.13
2023-02-21T10:50:01.966Z,12.30
2023-02-21T10:52:28.320Z,12.10
2023-02-21T10:55:31.307Z,11.00
2023-02-21T10:58:06.308Z,10.83
2023-02-21T11:00:37.273Z,10.90
2023-02-21T11:03:27.273Z,10.90
2023-02-21T11:05:59.627Z,12.17
2023-02-21T11:08:41.453Z,7.87
2023-02-21T11:11:08.386Z,10.43
2023-02-21T11:13:36.498Z,10.83
2023-02-21T11:16:17.331Z,5.33
2023-02-21T11:18:44.446Z,8.70
2023-02-21T11:21:16.937Z,10.00
2023-02-21T11:23:57.937Z,7.73
2023-02-21T11:26:25.070Z,7.37
2023-02-21T11:28:52.985Z,16.73
2023-02-21T11:31:32.159Z,6.97
2023-02-21T11:34:01.703Z,6.00
2023-02-21T11:36:36.806Z,6.27
2023-02-21T11:39:06.111Z,9.30
2023-02-21T11:41:57.372Z,7.53
2023-02-21T11:44:38.817Z,6.40
2023-02-21T11:47:21.684Z,4.43
2023-02-21T11:50:02.762Z,11.30
2023-02-21T11:52:37.329Z,3.90
2023-02-21T11:55:04.634Z,8.90
2023-02-21T11:57:35.952Z,10.30
2023-02-21T12:00:24.153Z,3.60
2023-02-21T12:03:22.549Z,10.80
2023-02-21T12:06:07.739Z,5.80
2023-02-21T12:08:56.715Z,5.57
2023-02-21T12:11:30.257Z,4.73
2023-02-21T12:14:14.096Z,6.20
2023-02-21T12:16:59.261Z,4.87
2023-02-21T12:19:47.461Z,3.93
2023-02-21T12:22:58.880Z,7.10
2023-02-21T12:25:44.065Z,7.40
2023-02-21T12:28:40.401Z,3.50
2023-02-21T12:31:22.326Z,4.87
2023-02-21T12:34:12.901Z,6.43
2023-02-21T12:36:56.775Z,4.33
2023-02-21T12:39:53.824Z,6.47
2023-02-21T12:42:36.989Z,4.17
2023-02-21T12:45:12.298Z,4.27
2023-02-21T12:47:48.717Z,7.23
2023-02-21T12:50:20.769Z,6.53
2023-02-21T12:53:02.717Z,6.53
2023-02-21T12:56:11.078Z,7.43
2023-02-21T12:58:53.977Z,8.83
2023-02-21T13:01:26.377Z,6.27
2023-02-21T13:04:22.748Z,9.03
2023-02-21T13:06:55.102Z,5.90
2023-02-21T13:09:39.147Z,8.10
2023-02-21T13:12:16.165Z,8.43
2023-02-21T13:14:49.284Z,9.43
2023-02-21T13:17:17.373Z,8.83
2023-02-21T13:19:49.779Z,10.77
2023-02-21T13:23:12.583Z,3.97
2023-02-21T13:26:05.032Z,10.53
2023-02-21T13:28:36.489Z,7.93
2023-02-21T13:31:06.009Z,4.90
2023-02-21T13:33:43.877Z,5.93
2023-02-21T13:36:22.938Z,7.27
2023-02-21T13:39:02.527Z,8.07
2023-02-21T13:41:34.208Z,3.20
2023-02-21T13:44:05.314Z,6.87
2023-02-21T13:46:31.655Z,12.47
2023-02-21T13:49:35.599Z,6.63
2023-02-21T13:52:23.414Z,11.47
2023-02-21T13:55:14.062Z,8.40
2023-02-21T13:57:46.143Z,10.47
2023-02-21T14:00:24.282Z,9.90
2023-02-21T14:03:05.575Z,3.47
2023-02-21T14:05:44.006Z,11.60
2023-02-21T14:08:22.195Z,8.53
2023-02-21T14:10:55.036Z,6.40
2023-02-21T14:13:33.186Z,5.93
2023-02-21T14:16:09.497Z,10.93
2023-02-21T14:18:39.022Z,8.57
2023-02-21T14:21:24.294Z,7.43
2023-02-21T14:23:58.627Z,8.60
2023-02-21T14:26:43.884Z,6.73
2023-02-21T14:29:15.152Z,4.63
2023-02-21T14:31:53.941Z,3.30
2023-02-21T14:34:28.213Z,7.83
2023-02-21T14:37:00.263Z,5.90
2023-02-21T14:39:34.291Z,6.33
2023-02-21T14:42:17.589Z,5.90
2023-02-21T14:45:11.867Z,6.77
2023-02-21T14:48:09.356Z,8.40
2023-02-21T14:50:44.613Z,4.10
2023-02-21T14:53:53.125Z,8.90
2023-02-21T14:56:58.784Z,5.73
2023-02-21T14:59:49.402Z,4.00
2023-02-21T15:02:40.000Z,10.37
2023-02-21T15:05:23.052Z,3.80
2023-02-21T15:07:49.345Z,3.43
2023-02-21T15:10:25.323Z,7.63
2023-02-21T15:12:55.294Z,6.40
2023-02-21T15:15:26.895Z,5.03
2023-02-21T15:18:06.115Z,6.07
2023-02-21T15:20:41.523Z,2.40
2023-02-21T15:23:16.690Z,4.03
2023-02-21T15:25:44.501Z,8.73
2023-02-21T15:28:26.135Z,5.13
2023-02-21T15:31:02.390Z,5.60
2023-02-21T15:33:34.034Z,5.80
2023-02-21T15:36:06.067Z,3.30
2023-02-21T15:38:37.754Z,4.47
2023-02-21T15:41:14.753Z,7.97
2023-02-21T15:43:56.641Z,4.80
2023-02-21T15:46:27.111Z,7.60
2023-02-21T15:48:59.789Z,6.03
2023-02-21T15:51:26.454Z,7.97
2023-02-21T15:54:21.217Z,6.50
2023-02-21T15:56:47.635Z,5.23
2023-02-21T15:59:26.370Z,6.00
2023-02-21T16:02:11.033Z,5.13
2023-02-21T16:04:55.633Z,5.90
2023-02-21T16:07:44.388Z,9.13
2023-02-21T16:10:14.369Z,4.77
2023-02-21T16:12:43.847Z,4.30
2023-02-21T16:15:25.219Z,3.93
2023-02-21T16:17:57.986Z,4.30
2023-02-21T16:20:30.634Z,5.27
2023-02-21T16:23:26.679Z,8.23
2023-02-21T16:25:59.084Z,8.47
2023-02-21T16:28:25.972Z,8.50
2023-02-21T16:30:52.782Z,4.87
2023-02-21T16:33:19.244Z,4.63
2023-02-21T16:35:45.639Z,8.50
2023-02-21T16:38:17.317Z,5.47
2023-02-21T16:40:43.980Z,5.40
2023-02-21T16:43:17.498Z,5.83
2023-02-21T16:45:44.055Z,6.03
2023-02-21T16:48:16.451Z,19.67
2023-02-21T16:50:44.029Z,3.57
2023-02-21T16:53:14.811Z,3.60
2023-02-21T16:55:45.083Z,5.60
2023-02-21T16:58:22.561Z,5.50
2023-02-21T17:00:48.980Z,4.50
2023-02-21T17:03:15.303Z,5.20
2023-02-21T17:05:41.926Z,4.67
2023-02-21T17:08:08.253Z,8.07
2023-02-21T17:10:34.710Z,11.73
2023-02-21T17:13:03.606Z,5.73
2023-02-21T17:15:32.065Z,9.27
2023-02-21T17:17:59.369Z,7.03
2023-02-21T17:20:26.124Z,8.30
2023-02-21T17:22:54.017Z,7.83
2023-02-21T17:25:23.005Z,6.27
2023-02-21T17:27:50.227Z,7.67
2023-02-21T17:30:18.414Z,5.67
2023-02-21T17:32:47.007Z,6.93
2023-02-21T17:35:15.320Z,6.40
2023-02-21T17:37:47.523Z,5.50
2023-02-21T17:40:14.252Z,8.13
2023-02-21T17:42:40.624Z,7.90
2023-02-21T17:45:07.645Z,6.93
2023-02-21T17:47:35.358Z,13.80
2023-02-21T17:50:03.663Z,7.00
2023-02-21T17:52:31.097Z,6.00
2023-02-21T17:54:57.836Z,11.20
2023-02-21T17:57:24.317Z,5.93
2023-02-21T17:59:50.832Z,7.17
2023-02-21T18:02:18.933Z,10.10
2023-02-21T18:04:45.774Z,7.60
2023-02-21T18:07:12.150Z,6.80
2023-02-21T18:09:38.530Z,7.73
2023-02-21T18:12:05.055Z,10.27
2023-02-21T18:14:32.134Z,8.40
2023-02-21T18:16:58.580Z,7.70
2023-02-21T18:19:25.405Z,11.67
2023-02-21T18:21:52.039Z,10.37
2023-02-21T18:24:19.193Z,7.90
2023-02-21T18:26:46.436Z,9.00
2023-02-21T18:29:12.934Z,9.53
2023-02-21T18:31:39.515Z,8.10
2023-02-21T18:34:07.569Z,9.90
2023-02-21T18:36:35.421Z,8.63
2023-02-21T18:39:01.986Z,15.63
2023-02-21T18:41:28.363Z,13.30
2023-02-21T18:43:54.737Z,10.50
2023-02-21T18:46:21.936Z,12.70
2023-02-21T18:48:50.256Z,11.23
2023-02-21T18:51:19.889Z,16.33
2023-02-21T18:53:48.381Z,13.27
2023-02-21T18:56:19.233Z,15.73
2023-02-21T18:58:46.874Z,11.90
2023-02-21T19:01:15.948Z,13.80
2023-02-21T19:03:42.674Z,15.70
2023-02-21T19:06:12.875Z,12.57
2023-02-21T19:08:39.530Z,14.50
2023-02-21T19:11:05.914Z,16.27
2023-02-21T19:13:32.289Z,18.90
2023-02-21T19:16:00.391Z,19.80
2023-02-21T19:18:28.177Z,13.97
2023-02-21T19:20:54.742Z,15.07
2023-02-21T19:23:21.105Z,14.63
2023-02-21T19:25:47.447Z,20.27
2023-02-21T19:28:13.862Z,14.03
2023-02-21T19:30:40.243Z,13.60
2023-02-21T19:33:09.361Z,16.37
2023-02-21T19:35:36.143Z,23.73
2023-02-21T19:38:07.511Z,19.90
2023-02-21T19:40:35.205Z,23.53
2023-02-21T19:43:02.680Z,20.80
2023-02-21T19:45:30.528Z,19.67
2023-02-21T19:47:57.048Z,18.70
2023-02-21T19:50:23.460Z,16.60
2023-02-21T19:52:56.153Z,23.97
2023-02-21T19:55:23.301Z,25.10
2023-02-21T19:57:49.717Z,18.50
2023-02-21T20:00:16.446Z,21.17
2023-02-21T20:02:44.521Z,19.90
2023-02-21T20:05:13.891Z,21.07
2023-02-21T20:07:41.332Z,20.07
2023-02-21T20:10:09.446Z,22.60
2023-02-21T20:12:35.955Z,25.03
2023-02-21T20:15:02.849Z,19.20
2023-02-21T20:17:31.531Z,24.70
2023-02-21T20:19:57.869Z,22.07
2023-02-21T20:22:25.538Z,23.77
2023-02-21T20:24:51.917Z,27.20
2023-02-21T20:27:18.342Z,26.13
2023-02-21T20:29:46.560Z,21.03
2023-02-21T20:32:15.641Z,24.13
2023-02-21T20:34:42.049Z,20.07
2023-02-21T20:37:11.093Z,22.57
2023-02-21T20:39:37.799Z,24.80
2023-02-21T20:42:06.977Z,25.90
2023-02-21T20:44:35.825Z,29.37
2023-02-21T20:47:03.979Z,28.20
2023-02-21T20:49:31.028Z,28.60
2023-02-21T20:51:58.321Z,30.60
2023-02-21T20:54:24.971Z,29.13
2023-02-21T20:56:57.102Z,27.17
2023-02-21T20:59:29.376Z,34.07
2023-02-21T21:01:57.935Z,35.60
2023-02-21T21:04:32.556Z,35.73
2023-02-21T21:07:08.771Z,31.33
2023-02-21T21:09:37.297Z,40.57
2023-02-21T21:12:07.251Z,38.37
2023-02-21T21:14:37.826Z,44.50
2023-02-21T21:17:04.498Z,37.13
2023-02-21T21:19:33.938Z,31.10
2023-02-21T21:22:06.024Z,30.83
2023-02-21T21:24:33.045Z,33.37
2023-02-21T21:27:06.333Z,30.30
2023-02-21T21:29:36.321Z,38.77
2023-02-21T21:32:05.316Z,35.63
2023-02-21T21:34:33.078Z,32.23
2023-02-21T21:37:01.870Z,38.00
2023-02-21T21:39:28.361Z,35.50
2023-02-21T21:41:58.670Z,33.30
2023-02-21T21:44:26.662Z,37.47
2023-02-21T21:46:54.162Z,37.70
2023-02-21T21:49:23.118Z,35.43
2023-02-21T21:51:50.017Z,34.17
2023-02-21T21:54:20.662Z,36.23
2023-02-21T21:56:48.575Z,41.47
2023-02-21T21:59:20.288Z,37.97
2023-02-21T22:01:47.475Z,29.00
2023-02-21T22:04:14.485Z,35.80
2023-02-21T22:06:41.823Z,39.10
2023-02-21T22:09:09.430Z,36.93
2023-02-21T22:11:36.505Z,34.70
2023-02-21T22:14:03.373Z,45.17
2023-02-21T22:16:37.660Z,36.03
2023-02-21T22:19:04.176Z,44.40
2023-02-21T22:21:31.717Z,42.93
2023-02-21T22:23:58.660Z,51.17
2023-02-21T22:26:26.512Z,42.63
2023-02-21T22:28:53.417Z,44.40
2023-02-21T22:31:20.709Z,54.47
2023-02-21T22:33:47.111Z,33.80
2023-02-21T22:36:14.828Z,41.00
2023-02-21T22:38:43.841Z,41.53
2023-02-21T22:41:23.566Z,40.03
2023-02-21T22:43:51.479Z,49.03
2023-02-21T22:46:18.962Z,45.37
2023-02-21T22:48:45.599Z,52.83
2023-02-21T22:51:14.593Z,50.20
2023-02-21T22:53:41.502Z,46.70
2023-02-21T22:56:11.911Z,52.83
2023-02-21T22:58:38.513Z,51.97
2023-02-21T23:01:08.165Z,43.57
2023-02-21T23:03:35.206Z,39.00
2023-02-21T23:06:02.195Z,34.60
2023-02-21T23:08:29.511Z,44.23
2023-02-21T23:10:55.846Z,49.90
2023-02-21T23:13:24.837Z,40.80
2023-02-21T23:15:55.620Z,56.47
2023-02-21T23:18:23.091Z,53.90
2023-02-21T23:20:52.968Z,46.40
2023-02-21T23:23:22.040Z,45.57
2023-02-21T23:25:48.434Z,48.90
2023-02-21T23:28:16.375Z,44.87
2023-02-21T23:30:43.097Z,48.50
2023-02-21T23:33:30.120Z,57.67
2023-02-21T23:35:57.211Z,45.87
2023-02-21T23:38:27.821Z,45.07
2023-02-21T23:40:56.454Z,50.67
2023-02-21T23:43:25.253Z,43.20
2023-02-21T23:45:52.935Z,45.07
2023-02-21T23:48:19.447Z,47.90
2023-02-21T23:50:47.013Z,40.40
2023-02-21T23:53:19.940Z,49.40
2023-02-21T23:55:47.495Z,43.70
2023-02-21T23:58:16.704Z,36.07
